This is the latest recevied weather packets stored in our database for station/object PE1RXF-13. If no packets are shown the sender has not sent any weather packets the latest 10 day(s).
| Time | Temp. | Humidity | Pressure | Rain* | Wind** | Luminosity | Snow |
|---|---|---|---|---|---|---|---|
| 1788699809 | 27.78° C | 45% | 1024.4 hPa | 0 mm | - | 196 W/m² | - |
| 1788698706 | 25° C | 51% | 1024.5 hPa | 0 mm | - | 199 W/m² | - |
| 1788697619 | 27.78° C | 42% | 1024.6 hPa | 0 mm | - | 212 W/m² | - |
| 1788696500 | 25.56° C | 49% | 1024.6 hPa | 0 mm | - | 204 W/m² | - |
| 1788695397 | 25° C | 54% | 1024.8 hPa | 0 mm | - | 223 W/m² | - |
| 1788694294 | 22.78° C | 60% | 1025.1 hPa | 0 mm | - | 222 W/m² | - |
| 1788693191 | 23.89° C | 59% | 1025.4 hPa | 0 mm | - | 189 W/m² | - |
| 1788692088 | 25° C | 55% | 1025.6 hPa | 0 mm | - | 197 W/m² | - |
| 1788690985 | 24.44° C | 58% | 1025.6 hPa | 0 mm | - | 184 W/m² | - |
| 1788689882 | 22.78° C | 61% | 1025.6 hPa | 0 mm | - | 170 W/m² | - |
| 1788688779 | 24.44° C | 57% | 1025.8 hPa | 0 mm | - | 166 W/m² | - |
| 1788687676 | 22.22° C | 64% | 1026.1 hPa | 0 mm | - | 166 W/m² | - |
| 1788686573 | 22.78° C | 60% | 1026.1 hPa | 0 mm | - | 136 W/m² | - |
| 1788685470 | 21.67° C | 69% | 1026 hPa | 0 mm | - | 123 W/m² | - |
| 1788684367 | 22.78° C | 69% | 1026.2 hPa | 0 mm | - | 111 W/m² | - |
| 1788683264 | 21.11° C | 78% | 1026.2 hPa | 0 mm | - | 98 W/m² | - |
| 1788682161 | 19.44° C | 85% | 1026.1 hPa | 0 mm | - | 86 W/m² | - |
| 1788681058 | 17.78° C | 90% | 1025.9 hPa | 0 mm | - | 74 W/m² | - |
| 1788679955 | 18.89° C | 89% | 1025.8 hPa | 0 mm | - | 64 W/m² | - |
| 1788678852 | 18.89° C | 88% | 1025.7 hPa | 0 mm | - | 54 W/m² | - |
| 1788677749 | 16.67° C | 99% | 1025.7 hPa | 0 mm | - | 54 W/m² | - |
| 1788676646 | 14.44° C | 99% | 1025.7 hPa | 0 mm | - | 42 W/m² | - |
| 1788675543 | 11.67° C | 99% | 1025.5 hPa | 0 mm | - | 31 W/m² | - |
| 1788674440 | 8.89° C | 99% | 1025.5 hPa | 0 mm | - | 12 W/m² | - |
| 1788673337 | 8.33° C | 99% | 1025.3 hPa | 0 mm | - | 9 W/m² | - |
* Rain latest hour (hover to see other rain measurements)
** Current wind speed in m/s (hover to see current wind gust speed)